Time;durP1;ratioP1;P1;durP2;ratioP2;P2;SDS_P1;SDS_P2;PMS_P1;PMS_P2;Temp;Humidity;BMP_temperature;BMP_pressure;BME280_temperature;BME280_humidity;BME280_pressure;Samples;Min_cycle;Max_cycle;Signal;HPM_P1;HPM_P2
2022/06/20 00:00:59;;;;;;;11.63;1.95;;;;;;;12.95;89.58;101230.63;5030614;28;20025;-90
2022/06/20 00:03:28;;;;;;;8.45;2.03;;;;;;;12.95;89.36;101233.31;5032141;28;20025;-91
2022/06/20 00:05:53;;;;;;;9.10;1.83;;;;;;;12.94;89.08;101242.44;5031501;28;20049;-89
2022/06/20 00:08:19;;;;;;;12.50;2.20;;;;;;;12.91;89.09;101242.97;5032106;28;20071;-89
2022/06/20 00:10:46;;;;;;;14.10;2.00;;;;;;;12.83;89.84;101226.25;5031109;28;20021;-90
2022/06/20 00:13:22;;;;;;;12.80;2.15;;;;;;;12.75;89.24;101218.72;5031351;28;20116;-90
2022/06/20 00:15:50;;;;;;;8.60;2.00;;;;;;;12.72;89.75;101219.22;5031173;28;20117;-91
2022/06/20 00:18:16;;;;;;;10.83;1.70;;;;;;;12.71;89.89;101236.44;5031370;28;20064;-89
2022/06/20 00:20:42;;;;;;;14.53;2.57;;;;;;;12.62;89.69;101232.63;5030939;28;20279;-89
2022/06/20 00:23:07;;;;;;;8.18;1.90;;;;;;;12.68;89.29;101253.09;5031386;28;20453;-89
2022/06/20 00:25:35;;;;;;;8.97;2.07;;;;;;;12.70;89.06;101257.13;5031613;28;20036;-90
2022/06/20 00:28:00;;;;;;;13.82;1.98;;;;;;;12.68;89.30;101274.59;5032791;28;20112;-90
2022/06/20 00:30:25;;;;;;;9.27;1.97;;;;;;;12.76;88.81;101309.06;5033801;28;20017;-90
2022/06/20 00:32:51;;;;;;;10.07;1.50;;;;;;;12.84;88.75;101313.13;5035473;28;20026;-91
2022/06/20 00:35:17;;;;;;;14.07;1.80;;;;;;;12.89;88.22;101310.47;5037622;28;20028;-91
2022/06/20 00:37:42;;;;;;;14.53;2.43;;;;;;;12.85;89.75;101302.13;5034116;28;20026;-89
2022/06/20 00:40:41;;;;;;;9.77;1.88;;;;;;;12.75;90.94;101331.66;5031201;28;20057;-87
2022/06/20 00:43:11;;;;;;;6.65;2.10;;;;;;;12.62;94.21;101348.22;4962608;28;20037;-87
2022/06/20 00:45:41;;;;;;;11.30;1.92;;;;;;;12.46;95.53;101358.06;5030928;28;20017;-87
2022/06/20 00:48:13;;;;;;;12.03;2.10;;;;;;;12.42;96.00;101387.31;5031049;28;20120;-88
2022/06/20 00:50:38;;;;;;;6.67;1.47;;;;;;;12.41;96.29;101417.97;5030526;28;20291;-88
2022/06/20 00:53:15;;;;;;;11.73;1.98;;;;;;;12.38;96.64;101446.16;5030937;28;20009;-88
2022/06/20 00:55:53;;;;;;;10.07;1.90;;;;;;;12.48;98.04;101483.06;5031048;28;20425;-88
2022/06/20 00:58:37;;;;;;;12.88;2.08;;;;;;;12.46;98.06;101495.94;5030765;28;20033;-87
2022/06/20 01:01:04;;;;;;;10.50;1.90;;;;;;;12.50;98.01;101469.38;5030358;28;20026;-89
2022/06/20 01:03:34;;;;;;;12.63;2.37;;;;;;;12.45;98.86;101443.25;5030904;28;20276;-88
2022/06/20 01:06:02;;;;;;;13.65;2.10;;;;;;;12.44;98.44;101430.88;5030340;28;20025;-88
2022/06/20 01:08:38;;;;;;;10.40;1.80;;;;;;;12.44;98.71;101417.44;5030659;28;20080;-88
2022/06/20 01:11:17;;;;;;;14.63;2.45;;;;;;;12.45;99.01;101413.69;5012301;28;20553;-88
2022/06/20 01:13:43;;;;;;;13.10;2.20;;;;;;;12.38;99.57;101411.22;5017420;28;20069;-88
2022/06/20 01:16:14;;;;;;;12.73;2.17;;;;;;;12.40;99.23;101394.84;5034697;28;20056;-87
2022/06/20 01:18:46;;;;;;;9.45;2.15;;;;;;;12.44;100.00;101379.81;5034558;28;20124;-88
2022/06/20 01:21:18;;;;;;;10.75;2.13;;;;;;;12.47;100.00;101387.38;5033129;28;20053;-88
2022/06/20 01:24:08;;;;;;;12.00;2.45;;;;;;;12.51;99.31;101375.03;5034149;28;20108;-88
2022/06/20 01:26:58;;;;;;;11.97;2.47;;;;;;;12.48;99.24;101361.31;5033823;28;20517;-88
2022/06/20 01:29:23;;;;;;;9.63;2.10;;;;;;;12.51;98.62;101352.69;5034306;28;20278;-89
2022/06/20 01:31:56;;;;;;;10.07;2.50;;;;;;;12.51;98.90;101342.78;5090379;22;20072;-88
2022/06/20 01:34:22;;;;;;;12.77;2.07;;;;;;;12.50;99.02;101340.38;5053654;28;20064;-88
2022/06/20 01:39:41;;;;;;;9.35;2.30;;;;;;;12.40;97.96;101331.16;5053920;28;20574;-87
2022/06/20 01:42:18;;;;;;;10.45;2.22;;;;;;;12.38;98.37;101330.59;5053586;28;20505;-86
2022/06/20 01:44:47;;;;;;;11.23;2.60;;;;;;;12.27;99.09;101318.16;5053926;28;20028;-86
2022/06/20 01:47:12;;;;;;;14.02;2.22;;;;;;;12.18;99.24;101309.75;5053958;28;20021;-88
2022/06/20 01:49:43;;;;;;;12.57;2.93;;;;;;;12.08;99.74;101297.06;5053769;28;20078;-89
2022/06/20 01:52:28;;;;;;;13.77;2.78;;;;;;;11.99;99.45;101298.56;5053005;28;20029;-88
2022/06/20 01:55:02;;;;;;;9.20;2.35;;;;;;;11.93;99.58;101304.94;5203329;22;20015;-89
2022/06/20 01:57:29;;;;;;;8.00;1.92;;;;;;;11.90;100.00;101292.81;5053492;28;20017;-89
2022/06/20 02:00:10;;;;;;;8.05;2.15;;;;;;;11.85;100.00;101284.75;5053700;28;20017;-89
2022/06/20 02:02:39;;;;;;;10.48;2.40;;;;;;;11.83;100.00;101289.56;5053186;28;20037;-89
2022/06/20 02:05:09;;;;;;;7.07;2.22;;;;;;;11.89;100.00;101285.84;5053679;28;20021;-88
2022/06/20 02:07:35;;;;;;;17.48;2.58;;;;;;;11.84;100.00;101280.44;5053329;28;20528;-89
2022/06/20 02:10:05;;;;;;;8.03;2.23;;;;;;;11.84;100.00;101283.13;5053375;28;20032;-89
2022/06/20 02:12:34;;;;;;;21.40;2.80;;;;;;;11.84;100.00;101275.06;5053035;28;20860;-88
2022/06/20 02:15:04;;;;;;;8.23;2.30;;;;;;;11.82;100.00;101263.78;5053371;28;20064;-88
2022/06/20 02:17:33;;;;;;;6.75;2.10;;;;;;;11.75;99.60;101249.72;5053120;28;20055;-90
2022/06/20 02:20:06;;;;;;;10.95;2.35;;;;;;;11.79;99.38;101253.53;5052918;28;20021;-89
2022/06/20 02:22:35;;;;;;;10.18;2.33;;;;;;;11.80;99.37;101247.09;5052495;28;20072;-88
2022/06/20 02:25:06;;;;;;;10.57;1.85;;;;;;;11.83;98.69;101251.97;5055564;28;20033;-88
2022/06/20 02:27:49;;;;;;;9.30;1.85;;;;;;;11.80;97.73;101239.84;5026300;28;20032;-89
2022/06/20 02:30:15;;;;;;;8.73;1.92;;;;;;;11.82;97.34;101237.72;5038039;28;20064;-88
2022/06/20 02:32:49;;;;;;;12.23;1.93;;;;;;;11.80;97.40;101237.16;5055645;28;20053;-89
2022/06/20 02:35:19;;;;;;;14.70;2.13;;;;;;;11.84;97.34;101239.34;5052728;28;20083;-89
2022/06/20 02:40:24;;;;;;;9.07;1.50;;;;;;;11.76;96.13;101228.03;5184218;22;20060;-87
2022/06/20 02:42:57;;;;;;;7.00;1.50;;;;;;;11.89;96.38;101242.88;5054061;28;20052;-89
2022/06/20 02:45:25;;;;;;;11.63;2.07;;;;;;;11.79;95.85;101226.69;5053877;28;20086;-88
2022/06/20 02:47:55;;;;;;;11.23;1.80;;;;;;;11.82;95.34;101234.25;5052867;28;20414;-88
2022/06/20 02:50:25;;;;;;;9.75;2.38;;;;;;;11.78;95.60;101233.13;5052535;28;20028;-88
2022/06/20 02:52:58;;;;;;;4.43;1.70;;;;;;;11.71;95.84;101222.59;5052524;28;20079;-89
2022/06/20 02:55:24;;;;;;;11.45;2.13;;;;;;;11.66;95.88;101218.00;5052557;28;20032;-89
2022/06/20 02:57:53;;;;;;;7.38;2.00;;;;;;;11.68;96.40;101212.38;5052472;28;20173;-89
2022/06/20 03:00:28;;;;;;;10.02;2.00;;;;;;;11.66;96.19;101195.69;5051841;28;20393;-89
2022/06/20 03:03:04;;;;;;;7.45;1.90;;;;;;;11.68;96.27;101196.25;5052258;28;20037;-89
2022/06/20 03:05:30;;;;;;;12.13;2.17;;;;;;;11.70;96.35;101188.75;5052660;28;20025;-90
2022/06/20 03:07:55;;;;;;;13.37;2.33;;;;;;;11.67;95.93;101186.59;5052116;28;20037;-89
2022/06/20 03:10:28;;;;;;;10.07;2.10;;;;;;;11.70;96.31;101201.34;5033919;28;20031;-90
2022/06/20 03:12:56;;;;;;;7.82;1.77;;;;;;;11.68;96.56;101203.53;5052230;28;20037;-89
2022/06/20 03:15:21;;;;;;;9.73;1.80;;;;;;;11.70;96.51;101209.41;5052248;28;20115;-89
2022/06/20 03:17:51;;;;;;;10.10;2.20;;;;;;;11.67;95.98;101210.75;5052097;28;20110;-90
2022/06/20 03:20:20;;;;;;;5.18;1.75;;;;;;;11.68;95.82;101211.56;5051371;28;20024;-90
2022/06/20 03:23:08;;;;;;;8.75;1.88;;;;;;;11.69;96.18;101207.78;5051586;28;20057;-89
2022/06/20 03:25:36;;;;;;;9.18;2.08;;;;;;;11.62;95.62;101208.84;5052289;28;20029;-90
2022/06/20 03:28:02;;;;;;;9.10;1.73;;;;;;;11.64;95.88;101222.81;5051814;28;20101;-90
2022/06/20 03:30:27;;;;;;;7.53;2.07;;;;;;;11.62;95.54;101227.63;5051871;28;20476;-89
2022/06/20 03:32:53;;;;;;;7.47;1.67;;;;;;;11.59;95.00;101230.00;5051751;28;20033;-89
2022/06/20 03:35:19;;;;;;;7.13;1.60;;;;;;;11.60;95.87;101227.06;5051912;28;20267;-90
2022/06/20 03:37:47;;;;;;;7.90;1.70;;;;;;;11.59;95.35;101225.44;5057689;28;20078;-90
2022/06/20 03:40:14;;;;;;;8.20;1.60;;;;;;;11.59;95.73;101225.44;5053634;28;20116;-90
2022/06/20 03:42:43;;;;;;;6.47;1.70;;;;;;;11.65;95.66;101245.91;5051461;28;20029;-90
2022/06/20 03:45:09;;;;;;;9.77;2.03;;;;;;;11.72;95.12;101253.75;5051557;28;20645;-89
2022/06/20 03:47:45;;;;;;;8.13;1.70;;;;;;;11.85;94.82;101268.63;5051235;28;20013;-90
2022/06/20 03:50:16;;;;;;;9.10;2.00;;;;;;;11.93;94.75;101273.53;5033299;28;20032;-90
2022/06/20 03:52:49;;;;;;;9.50;1.73;;;;;;;12.02;93.63;101286.53;5177045;22;20076;-88
2022/06/20 03:55:29;;;;;;;9.43;1.70;;;;;;;12.10;93.97;101297.59;5051542;28;20029;-89
2022/06/20 03:58:01;;;;;;;11.82;2.15;;;;;;;12.13;92.90;101304.34;5051086;28;20025;-89
2022/06/20 04:00:56;;;;;;;10.25;1.90;;;;;;;12.15;93.01;101304.88;5051024;28;20029;-89
2022/06/20 04:03:47;;;;;;;8.38;1.80;;;;;;;12.14;92.59;101299.78;5039182;28;20124;-89
2022/06/20 04:06:27;;;;;;;8.35;2.00;;;;;;;12.11;92.69;101296.53;5006286;28;20107;-90
2022/06/20 04:11:45;;;;;;;7.83;1.87;;;;;;;12.13;92.67;101304.34;5051045;28;20626;-90
2022/06/20 04:14:17;;;;;;;12.93;2.10;;;;;;;12.21;93.11;101308.41;5050979;28;20039;-90
2022/06/20 04:16:51;;;;;;;10.18;2.25;;;;;;;12.29;92.29;101296.38;5050844;28;20070;-90
2022/06/20 04:19:17;;;;;;;15.20;2.00;;;;;;;12.36;91.61;101310.41;5051016;28;20116;-90
2022/06/20 04:22:04;;;;;;;9.00;1.63;;;;;;;12.43;91.93;101324.44;5050334;28;20124;-91
2022/06/20 04:24:52;;;;;;;8.88;1.98;;;;;;;12.47;92.20;101324.75;5051464;28;20113;-91
2022/06/20 04:27:36;;;;;;;8.80;1.88;;;;;;;12.48;91.50;101319.09;5050767;28;20036;-89
2022/06/20 04:30:11;;;;;;;9.80;1.85;;;;;;;12.47;91.66;101325.53;5049945;28;20386;-89
2022/06/20 04:32:43;;;;;;;12.38;2.13;;;;;;;12.50;91.53;101319.66;5050521;28;20471;-89
2022/06/20 04:35:23;;;;;;;8.68;1.52;;;;;;;12.52;92.00;101339.03;5050509;28;20032;-90
2022/06/20 04:37:52;;;;;;;9.43;2.03;;;;;;;12.49;92.35;101331.47;5050665;28;20033;-90
2022/06/20 04:40:26;;;;;;;16.20;2.30;;;;;;;12.51;92.71;101341.94;5050259;28;20025;-89
2022/06/20 04:43:33;;;;;;;8.83;2.20;;;;;;;12.55;92.79;101340.38;5050550;28;20295;-90
2022/06/20 04:46:04;;;;;;;11.15;1.88;;;;;;;12.61;93.09;101347.41;4950569;28;20042;-90
2022/06/20 04:48:30;;;;;;;5.85;1.75;;;;;;;12.65;92.63;101336.94;4956511;28;20132;-90
2022/06/20 04:51:07;;;;;;;9.27;2.05;;;;;;;12.66;92.88;101344.78;5014417;22;20057;-91
2022/06/20 04:53:35;;;;;;;8.47;2.00;;;;;;;12.75;92.79;101353.16;5039404;28;20055;-91
2022/06/20 04:56:04;;;;;;;11.55;1.90;;;;;;;12.82;92.68;101351.03;5057290;28;20023;-91
2022/06/20 04:58:39;;;;;;;11.02;2.00;;;;;;;12.91;92.71;101355.94;5056956;28;20071;-91
2022/06/20 05:01:06;;;;;;;11.32;2.08;;;;;;;13.07;91.35;101371.09;5056495;28;20024;-92
2022/06/20 05:03:39;;;;;;;7.32;1.88;;;;;;;13.16;91.35;101366.81;5057242;28;20107;-91
2022/06/20 05:06:11;;;;;;;12.45;2.10;;;;;;;13.23;90.98;101366.59;5057290;28;20106;-91
2022/06/20 05:08:52;;;;;;;8.90;2.10;;;;;;;13.36;90.56;101373.34;5056898;28;20032;-92
2022/06/20 05:11:27;;;;;;;13.60;1.83;;;;;;;13.38;89.79;101360.44;5056706;28;20075;-92
2022/06/20 05:14:07;;;;;;;16.95;1.98;;;;;;;13.41;89.47;101365.34;5056966;28;20257;-90
2022/06/20 05:16:37;;;;;;;9.40;1.87;;;;;;;13.45;89.66;101371.81;5058985;28;20025;-90
2022/06/20 05:19:08;;;;;;;6.07;1.60;;;;;;;13.49;88.76;101374.78;5057145;28;20313;-91
2022/06/20 05:21:43;;;;;;;6.97;1.55;;;;;;;13.53;89.66;101372.38;5056646;28;20040;-90
2022/06/20 05:24:15;;;;;;;8.80;1.63;;;;;;;13.48;88.63;101365.91;5057202;28;20384;-92
2022/06/20 05:26:44;;;;;;;10.65;1.80;;;;;;;13.54;88.62;101384.75;5057705;28;20032;-92
2022/06/20 05:29:17;;;;;;;7.45;1.95;;;;;;;13.53;89.33;101392.03;5058410;28;20040;-92
2022/06/20 05:31:49;;;;;;;10.85;1.88;;;;;;;13.58;89.27;101392.06;5056722;28;20060;-90
2022/06/20 05:34:28;;;;;;;8.45;1.95;;;;;;;13.60;89.53;101383.72;5056946;28;20025;-90
2022/06/20 05:37:28;;;;;;;7.05;1.80;;;;;;;13.63;89.43;101367.03;5038898;28;20063;-91
2022/06/20 05:40:16;;;;;;;9.07;2.00;;;;;;;13.73;89.32;101372.44;5057364;28;20033;-91
2022/06/20 05:42:42;;;;;;;5.90;2.00;;;;;;;13.75;88.64;101372.97;5042382;28;20040;-89
2022/06/20 05:45:20;;;;;;;10.70;2.00;;;;;;;13.63;89.28;101351.66;5059457;28;20339;-90
2022/06/20 05:47:54;;;;;;;7.93;2.42;;;;;;;13.68;89.45;101364.38;5057082;28;20055;-91
2022/06/20 05:50:23;;;;;;;9.00;2.00;;;;;;;13.69;88.96;101360.59;5057571;28;20502;-90
2022/06/20 05:52:50;;;;;;;6.85;1.80;;;;;;;13.73;88.77;101358.97;5058494;28;20123;-90
2022/06/20 05:55:23;;;;;;;14.98;2.50;;;;;;;13.80;88.96;101369.47;5057934;28;20053;-91
2022/06/20 05:57:50;;;;;;;9.20;2.38;;;;;;;13.93;88.68;101369.00;5057583;28;20032;-90
2022/06/20 06:00:24;;;;;;;6.83;2.00;;;;;;;14.22;87.80;101381.16;5057592;28;20029;-91
2022/06/20 06:03:16;;;;;;;8.27;2.37;;;;;;;14.55;87.29;101387.06;5038024;28;20410;-90
2022/06/20 06:05:47;;;;;;;7.13;1.90;;;;;;;14.80;85.46;101388.13;5057228;28;20028;-91
2022/06/20 06:08:33;;;;;;;8.05;2.10;;;;;;;15.01;83.49;101388.09;5055984;28;20028;-90
2022/06/20 06:11:02;;;;;;;5.95;1.80;;;;;;;15.12;82.41;101397.78;5170845;22;20047;-91
2022/06/20 06:13:36;;;;;;;9.55;1.90;;;;;;;15.17;80.70;101395.06;5054360;28;20079;-91
2022/06/20 06:19:11;;;;;;;8.95;2.08;;;;;;;15.12;81.88;101389.69;5054076;28;20083;-92
2022/06/20 06:21:37;;;;;;;8.25;2.10;;;;;;;14.97;81.07;101380.53;5053106;28;20348;-91
2022/06/20 06:24:10;;;;;;;6.00;2.00;;;;;;;14.86;80.47;101391.66;5053332;28;20102;-91
2022/06/20 06:26:36;;;;;;;11.53;2.40;;;;;;;14.86;80.41;101386.25;5054346;28;20037;-91
2022/06/20 06:29:14;;;;;;;15.20;2.50;;;;;;;14.97;81.07;101398.63;5054295;28;20284;-91
2022/06/20 06:31:42;;;;;;;8.75;2.05;;;;;;;15.07;80.00;101400.50;5052956;28;20377;-93
2022/06/20 06:34:19;;;;;;;9.48;1.95;;;;;;;15.07;80.27;101393.19;5052736;28;20029;-92
2022/06/20 06:37:01;;;;;;;9.45;2.33;;;;;;;14.96;80.05;101397.00;5053392;28;20072;-91
2022/06/20 06:39:41;;;;;;;9.48;2.30;;;;;;;14.98;80.61;101389.44;5053162;28;20029;-92
2022/06/20 06:42:12;;;;;;;9.50;2.38;;;;;;;15.21;79.54;101398.81;5052608;28;20033;-90
2022/06/20 06:44:49;;;;;;;13.73;2.20;;;;;;;15.32;79.10;101398.81;5053129;28;20392;-91
2022/06/20 06:47:49;;;;;;;10.18;2.00;;;;;;;15.46;78.66;101405.22;5053184;28;20473;-93
2022/06/20 06:50:29;;;;;;;7.45;2.03;;;;;;;15.71;78.13;101412.41;5011170;28;20409;-92
2022/06/20 06:53:14;;;;;;;7.97;2.00;;;;;;;16.21;73.93;101419.69;5053947;28;20029;-92
2022/06/20 06:55:43;;;;;;;8.97;2.23;;;;;;;16.74;72.98;101427.09;5053050;28;20286;-92
2022/06/20 06:58:19;;;;;;;7.63;1.92;;;;;;;17.20;70.18;101428.56;5054066;28;20033;-93
2022/06/20 07:00:54;;;;;;;6.30;1.55;;;;;;;17.29;67.77;101425.22;5053556;28;20032;-93
2022/06/20 07:03:28;;;;;;;7.38;1.95;;;;;;;17.21;67.02;101430.19;5052870;28;20021;-91
2022/06/20 07:06:23;;;;;;;6.78;1.70;;;;;;;17.24;66.72;101432.31;5052979;28;20029;-91
2022/06/20 07:09:12;;;;;;;9.32;1.73;;;;;;;17.55;67.42;101441.97;5044722;28;20052;-92
2022/06/20 07:11:43;;;;;;;7.13;1.50;;;;;;;17.28;64.97;101450.69;5051770;28;20748;-91
2022/06/20 07:14:21;;;;;;;5.82;1.70;;;;;;;17.17;66.56;101450.81;5053100;28;20033;-92
2022/06/20 07:17:42;;;;;;;10.02;1.80;;;;;;;17.12;67.20;101447.34;5053853;28;20024;-91
2022/06/20 07:20:15;;;;;;;7.40;1.60;;;;;;;17.06;65.75;101447.38;4954138;29;20023;-92
2022/06/20 07:22:51;;;;;;;6.83;1.83;;;;;;;16.70;65.99;101450.41;4952382;29;20298;-92
2022/06/20 07:25:21;;;;;;;7.22;1.60;;;;;;;16.65;67.29;101455.84;5022045;28;20037;-92
2022/06/20 07:27:53;;;;;;;6.95;1.80;;;;;;;16.62;66.63;101459.13;5053052;28;20018;-92
2022/06/20 07:30:27;;;;;;;4.05;1.40;;;;;;;16.49;66.43;101453.28;5051918;28;20025;-92
2022/06/20 07:33:21;;;;;;;4.93;1.70;;;;;;;16.32;66.62;101459.09;5052443;28;20025;-92
2022/06/20 07:35:50;;;;;;;6.18;1.50;;;;;;;16.28;69.04;101444.53;5052566;28;20515;-92
2022/06/20 07:38:21;;;;;;;9.77;1.92;;;;;;;16.48;66.49;101448.97;5034683;28;20036;-91
2022/06/20 07:41:06;;;;;;;7.68;1.77;;;;;;;16.63;66.81;101455.31;5052468;28;20025;-92
2022/06/20 07:43:39;;;;;;;7.88;1.75;;;;;;;16.89;66.55;101447.78;5052998;28;20036;-91
2022/06/20 07:46:23;;;;;;;10.67;1.87;;;;;;;17.00;63.55;101447.72;5054900;28;20481;-93
2022/06/20 07:48:57;;;;;;;8.90;1.80;;;;;;;17.13;62.61;101452.47;5052829;28;20307;-92
2022/06/20 07:51:45;;;;;;;7.85;1.80;;;;;;;17.38;63.52;101456.00;5052438;28;20021;-94
2022/06/20 07:54:20;;;;;;;7.05;1.42;;;;;;;17.57;60.46;101456.03;5052872;28;20049;-92
2022/06/20 07:56:51;;;;;;;5.85;1.35;;;;;;;17.95;59.68;101456.06;5279102;22;20501;-94
2022/06/20 07:59:40;;;;;;;8.13;1.58;;;;;;;18.49;59.75;101460.47;5052189;28;20021;-93
2022/06/20 08:02:31;;;;;;;5.13;1.30;;;;;;;18.62;58.77;101470.56;5052047;28;20480;-94
2022/06/20 08:05:00;;;;;;;4.25;1.60;;;;;;;18.54;56.36;101460.38;5052718;28;20108;-93
2022/06/20 08:07:40;;;;;;;8.82;1.35;;;;;;;18.93;58.36;101459.16;5052209;28;20024;-92
2022/06/20 08:10:15;;;;;;;5.20;1.40;;;;;;;19.36;53.30;101471.72;5051438;28;20075;-92
2022/06/20 08:13:04;;;;;;;5.23;1.60;;;;;;;19.45;53.15;101464.47;5052082;28;20036;-92
2022/06/20 08:16:22;;;;;;;7.73;1.70;;;;;;;19.79;53.95;101467.88;5052121;28;20286;-92
2022/06/20 08:18:48;;;;;;;6.13;1.60;;;;;;;19.45;52.70;101472.63;5010151;28;20052;-93
2022/06/20 08:21:25;;;;;;;3.50;1.60;;;;;;;19.37;52.99;101466.00;5050873;28;20384;-93
2022/06/20 08:23:58;;;;;;;6.45;1.20;;;;;;;19.27;47.44;101468.09;5055306;28;20108;-94
2022/06/20 08:26:30;;;;;;;3.10;1.23;;;;;;;19.16;49.16;101465.59;5055693;28;20021;-93
2022/06/20 08:29:07;;;;;;;4.38;1.30;;;;;;;19.32;49.66;101465.28;5070417;28;20013;-93
2022/06/20 08:31:43;;;;;;;4.80;1.50;;;;;;;19.34;48.37;101471.22;5073773;28;20007;-93
2022/06/20 08:34:17;;;;;;;4.40;1.60;;;;;;;19.39;48.44;101468.38;5076889;28;20037;-93
2022/06/20 08:36:59;;;;;;;5.70;1.53;;;;;;;19.57;50.49;101483.00;5076698;28;20083;-93
2022/06/20 08:39:46;;;;;;;4.90;1.80;;;;;;;19.60;47.93;101485.09;5075567;28;20311;-93
2022/06/20 08:42:24;;;;;;;6.07;2.08;;;;;;;19.25;48.61;101482.00;5058201;28;20036;-93
2022/06/20 08:45:02;;;;;;;8.20;1.95;;;;;;;19.33;50.18;101488.63;5058587;28;20029;-92
2022/06/20 08:47:46;;;;;;;7.13;1.80;;;;;;;19.29;51.37;101485.69;5061276;28;20017;-93
2022/06/20 08:50:28;;;;;;;4.38;1.70;;;;;;;19.52;48.94;101492.06;5058460;28;20029;-92
2022/06/20 08:53:11;;;;;;;6.72;1.73;;;;;;;19.89;50.15;101494.84;5054158;28;20029;-91
2022/06/20 08:56:04;;;;;;;4.38;1.90;;;;;;;19.55;49.71;101500.69;5053487;28;20059;-93
2022/06/20 08:59:00;;;;;;;6.93;2.10;;;;;;;19.38;49.48;101502.09;5052603;28;20063;-93
2022/06/20 09:01:25;;;;;;;7.78;1.90;;;;;;;18.86;50.34;101510.34;5051306;28;20028;-93
2022/06/20 09:04:19;;;;;;;8.10;2.10;;;;;;;18.69;51.44;101517.16;5053151;28;20064;-94
2022/06/20 09:07:07;;;;;;;7.80;2.13;;;;;;;18.26;52.74;101514.53;5052410;28;20049;-93
2022/06/20 09:09:48;;;;;;;4.83;2.10;;;;;;;18.44;53.25;101518.34;5034037;28;20029;-93
2022/06/20 09:12:50;;;;;;;6.47;2.20;;;;;;;18.81;53.43;101518.56;5051319;28;20646;-94
2022/06/20 09:15:36;;;;;;;7.78;2.05;;;;;;;19.32;52.27;101512.28;5050913;28;20493;-92
2022/06/20 09:18:39;;;;;;;7.40;2.33;;;;;;;19.75;49.66;101521.25;5051170;28;20017;-93
2022/06/20 09:21:13;;;;;;;4.75;1.70;;;;;;;20.68;48.02;101514.53;5050315;28;20091;-92
2022/06/20 09:23:44;;;;;;;4.05;1.90;;;;;;;20.71;46.20;101526.75;5050638;28;20029;-91
2022/06/20 09:26:19;;;;;;;9.07;2.30;;;;;;;20.04;46.20;101517.38;5050927;28;20029;-93
2022/06/20 09:28:50;;;;;;;12.68;2.40;;;;;;;19.46;47.89;101523.16;5051823;28;20048;-94
2022/06/20 09:31:53;;;;;;;5.03;2.08;;;;;;;19.29;48.35;101531.09;5032279;28;20033;-94
2022/06/20 09:34:56;;;;;;;6.15;1.75;;;;;;;19.84;50.20;101524.84;5053774;28;20040;-94
2022/06/20 09:37:40;;;;;;;7.67;1.83;;;;;;;20.43;46.88;101524.94;5054278;28;20033;-93
2022/06/20 09:40:17;;;;;;;5.17;1.70;;;;;;;20.43;44.65;101530.41;5055175;28;20348;-92
2022/06/20 09:42:50;;;;;;;4.15;1.58;;;;;;;20.61;44.10;101538.69;5058213;28;20040;-92
2022/06/20 09:45:37;;;;;;;3.15;1.60;;;;;;;20.26;42.97;101530.25;5056447;28;20112;-92
2022/06/20 09:48:22;;;;;;;6.38;2.03;;;;;;;20.51;44.46;101523.41;5055896;28;20115;-92
2022/06/20 09:51:04;;;;;;;9.73;1.80;;;;;;;21.00;43.45;101520.84;5056499;28;20025;-91
2022/06/20 09:53:44;;;;;;;6.30;1.83;;;;;;;21.97;40.72;101525.88;5055547;28;20021;-92
2022/06/20 09:56:30;;;;;;;6.20;2.10;;;;;;;21.94;41.51;101524.59;5054776;28;20056;-92
2022/06/20 09:59:23;;;;;;;9.20;2.00;;;;;;;21.54;42.90;101528.16;5054578;28;20067;-92
2022/06/20 10:02:09;;;;;;;6.32;2.13;;;;;;;21.46;43.62;101526.19;5132428;22;20057;-93
2022/06/20 10:04:43;;;;;;;8.00;2.30;;;;;;;21.57;43.53;101532.19;5056761;28;20028;-92
2022/06/20 10:10:19;;;;;;;9.98;2.30;;;;;;;21.15;43.79;101502.53;5054955;28;20442;-92
2022/06/20 10:13:01;;;;;;;10.60;3.03;;;;;;;21.14;43.47;101514.53;5054526;28;20448;-93
2022/06/20 10:15:58;;;;;;;10.63;2.72;;;;;;;21.10;43.88;101519.78;5054920;28;20037;-92
2022/06/20 10:18:57;;;;;;;8.30;2.60;;;;;;;21.69;44.62;101524.22;5058843;28;20080;-93
2022/06/20 10:21:41;;;;;;;11.57;2.78;;;;;;;22.09;43.72;101526.06;5057348;28;20029;-93
2022/06/20 10:24:41;;;;;;;7.90;2.63;;;;;;;22.18;42.21;101518.69;5041333;28;20037;-92
2022/06/20 10:27:21;;;;;;;7.45;2.70;;;;;;;22.18;41.29;101534.25;5008366;28;20040;-93
2022/06/20 10:30:05;;;;;;;5.45;2.55;;;;;;;22.35;42.05;101539.72;5039526;28;20049;-93
2022/06/20 10:32:51;;;;;;;7.10;2.60;;;;;;;22.63;40.14;101538.63;5054047;28;20116;-92
2022/06/20 10:35:47;;;;;;;7.33;2.70;;;;;;;22.81;40.97;101539.38;5055609;28;20318;-93
2022/06/20 10:38:35;;;;;;;8.55;2.63;;;;;;;22.59;40.29;101554.81;5053544;28;20033;-92
2022/06/20 10:41:25;;;;;;;10.02;2.67;;;;;;;22.43;42.54;101551.81;5052883;28;20112;-93
2022/06/20 10:43:53;;;;;;;8.57;2.60;;;;;;;22.52;40.88;101551.81;5053570;28;20048;-93
2022/06/20 10:46:33;;;;;;;8.20;2.78;;;;;;;22.61;40.50;101547.13;5053680;28;20029;-92
2022/06/20 10:49:23;;;;;;;9.88;2.50;;;;;;;23.02;41.75;101563.28;5055260;28;20033;-93
2022/06/20 10:51:56;;;;;;;7.28;2.58;;;;;;;23.13;38.21;101561.81;5053948;28;20032;-93
2022/06/20 10:54:31;;;;;;;8.65;2.60;;;;;;;23.18;38.78;101569.06;5053437;28;20032;-93
2022/06/20 10:57:02;;;;;;;8.98;2.75;;;;;;;23.02;39.32;101569.53;5053908;28;20025;-93
2022/06/20 11:00:00;;;;;;;6.60;2.30;;;;;;;22.79;40.39;101567.03;5054673;28;20026;-94
2022/06/20 11:02:34;;;;;;;7.10;2.53;;;;;;;22.36;38.71;101562.34;5053555;28;20662;-94
2022/06/20 11:05:08;;;;;;;8.15;2.70;;;;;;;22.76;40.47;101570.41;5054459;28;20033;-93
2022/06/20 11:07:43;;;;;;;7.03;2.38;;;;;;;22.79;39.06;101569.78;5054090;28;20053;-94
2022/06/20 11:10:21;;;;;;;8.90;2.60;;;;;;;23.06;40.65;101583.38;5078826;22;20052;-94
2022/06/20 11:13:06;;;;;;;7.10;2.40;;;;;;;23.09;38.22;101578.06;5054101;28;20043;-93
2022/06/20 11:15:52;;;;;;;7.25;2.30;;;;;;;23.44;39.39;101569.78;5053604;28;20084;-94
2022/06/20 11:18:42;;;;;;;7.43;2.20;;;;;;;23.90;38.67;101580.19;5053794;28;20557;-93
2022/06/20 11:21:22;;;;;;;6.72;2.50;;;;;;;23.94;37.86;101575.63;5052837;28;20112;-94
2022/06/20 11:24:30;;;;;;;9.10;2.75;;;;;;;23.80;38.08;101583.28;5053053;28;20094;-93
2022/06/20 11:27:21;;;;;;;6.07;2.17;;;;;;;23.89;38.14;101573.91;5052760;28;20017;-93
2022/06/20 11:29:56;;;;;;;7.20;2.63;;;;;;;24.40;36.81;101575.03;5059797;22;20334;-94
2022/06/20 11:32:27;;;;;;;7.38;2.50;;;;;;;24.40;35.74;101572.31;5052767;28;20025;-93
2022/06/20 11:35:28;;;;;;;8.23;2.60;;;;;;;24.50;38.45;101571.88;5052607;28;20039;-94
2022/06/20 11:38:13;;;;;;;7.97;2.50;;;;;;;23.85;37.70;101553.78;5034642;28;20120;-93
2022/06/20 11:40:57;;;;;;;7.68;2.45;;;;;;;23.51;39.21;101576.69;5055606;28;20057;-94
2022/06/20 11:43:36;;;;;;;8.38;2.53;;;;;;;23.32;38.68;101580.59;5060799;28;20044;-92
2022/06/20 11:46:20;;;;;;;8.38;2.90;;;;;;;23.86;38.70;101581.97;5056094;28;20060;-94
2022/06/20 11:51:41;;;;;;;5.15;2.47;;;;;;;24.43;36.65;101568.91;4841343;26;20460;-94
2022/06/20 11:54:53;;;;;;;7.90;2.40;;;;;;;24.41;37.53;101544.56;4983100;28;20044;-92
2022/06/20 11:57:43;;;;;;;4.97;2.30;;;;;;;24.18;37.09;101544.13;5012331;28;20285;-94
2022/06/20 12:01:00;;;;;;;11.40;2.30;;;;;;;24.09;38.22;101566.06;5025743;28;20025;-95
2022/06/20 12:03:44;;;;;;;5.03;2.33;;;;;;;23.28;37.39;101574.19;5035503;28;20481;-93
2022/06/20 12:06:20;;;;;;;9.23;2.67;;;;;;;22.68;38.30;101579.41;5034619;28;20049;-94
2022/06/20 12:09:10;;;;;;;4.85;2.10;;;;;;;22.66;39.09;101568.00;5034358;28;20033;-94
2022/06/20 12:11:43;;;;;;;7.45;2.40;;;;;;;23.19;37.07;101571.44;5080924;22;20033;-93
2022/06/20 12:14:23;;;;;;;6.15;2.30;;;;;;;23.77;37.39;101568.34;5063140;28;20074;-92
2022/06/20 12:17:11;;;;;;;7.78;2.33;;;;;;;24.84;35.94;101574.69;5054344;28;20052;-94
2022/06/20 12:28:00;;;;;;;7.50;2.80;;;;;;;23.55;36.56;101561.22;5155142;22;20060;-94
2022/06/20 12:30:26;;;;;;;9.25;2.80;;;;;;;23.34;37.04;101548.28;5095135;22;20049;-94
2022/06/20 12:33:10;;;;;;;6.83;2.30;;;;;;;22.92;36.70;101545.31;5053072;28;20087;-93